sensor_id;sensor_type;location;lat;lon;timestamp;P1;durP1;ratioP1;P2;durP2;ratioP2
27722;SDS011;15123;-37.794;175.246;2022-09-27T00:02:28;9.07;;;1.50;;
27722;SDS011;15123;-37.794;175.246;2022-09-27T00:09:23;10.77;;;1.65;;
27722;SDS011;15123;-37.794;175.246;2022-09-27T00:12:40;9.23;;;1.15;;
27722;SDS011;15123;-37.794;175.246;2022-09-27T00:16:04;12.13;;;1.30;;
27722;SDS011;15123;-37.794;175.246;2022-09-27T00:19:28;10.00;;;1.70;;
27722;SDS011;15123;-37.794;175.246;2022-09-27T00:22:52;10.20;;;1.17;;
27722;SDS011;15123;-37.794;175.246;2022-09-27T00:26:16;9.23;;;1.20;;
27722;SDS011;15123;-37.794;175.246;2022-09-27T00:29:40;12.35;;;1.30;;
27722;SDS011;15123;-37.794;175.246;2022-09-27T00:33:04;9.52;;;1.05;;
27722;SDS011;15123;-37.794;175.246;2022-09-27T00:36:29;9.82;;;1.20;;
27722;SDS011;15123;-37.794;175.246;2022-09-27T00:39:54;9.30;;;1.13;;
27722;SDS011;15123;-37.794;175.246;2022-09-27T00:43:21;10.55;;;1.50;;
27722;SDS011;15123;-37.794;175.246;2022-09-27T00:46:46;9.32;;;1.17;;
27722;SDS011;15123;-37.794;175.246;2022-09-27T00:50:34;11.57;;;1.40;;
27722;SDS011;15123;-37.794;175.246;2022-09-27T00:54:03;10.90;;;1.20;;
27722;SDS011;15123;-37.794;175.246;2022-09-27T00:57:28;11.32;;;1.50;;
27722;SDS011;15123;-37.794;175.246;2022-09-27T01:00:54;10.63;;;1.40;;
27722;SDS011;15123;-37.794;175.246;2022-09-27T01:04:23;8.57;;;1.20;;
27722;SDS011;15123;-37.794;175.246;2022-09-27T01:07:48;7.70;;;1.10;;
27722;SDS011;15123;-37.794;175.246;2022-09-27T01:18:30;10.32;;;1.25;;
27722;SDS011;15123;-37.794;175.246;2022-09-27T01:22:36;11.98;;;1.63;;
27722;SDS011;15123;-37.794;175.246;2022-09-27T01:26:28;9.25;;;1.40;;
27722;SDS011;15123;-37.794;175.246;2022-09-27T01:33:41;6.93;;;1.08;;
27722;SDS011;15123;-37.794;175.246;2022-09-27T01:45:17;9.85;;;1.20;;
27722;SDS011;15123;-37.794;175.246;2022-09-27T01:48:48;13.95;;;1.40;;
27722;SDS011;15123;-37.794;175.246;2022-09-27T01:52:13;12.43;;;1.73;;
27722;SDS011;15123;-37.794;175.246;2022-09-27T01:55:41;13.52;;;1.70;;
27722;SDS011;15123;-37.794;175.246;2022-09-27T01:59:21;10.18;;;1.23;;
27722;SDS011;15123;-37.794;175.246;2022-09-27T02:07:24;12.30;;;1.42;;
27722;SDS011;15123;-37.794;175.246;2022-09-27T02:10:44;8.68;;;1.20;;
27722;SDS011;15123;-37.794;175.246;2022-09-27T02:17:56;9.73;;;1.25;;
27722;SDS011;15123;-37.794;175.246;2022-09-27T02:21:21;11.85;;;1.35;;
27722;SDS011;15123;-37.794;175.246;2022-09-27T02:24:58;10.25;;;1.20;;
27722;SDS011;15123;-37.794;175.246;2022-09-27T02:28:32;9.82;;;0.95;;
27722;SDS011;15123;-37.794;175.246;2022-09-27T02:32:12;11.63;;;1.63;;
27722;SDS011;15123;-37.794;175.246;2022-09-27T02:35:38;10.07;;;1.45;;
27722;SDS011;15123;-37.794;175.246;2022-09-27T02:39:02;11.20;;;1.10;;
27722;SDS011;15123;-37.794;175.246;2022-09-27T02:42:47;9.07;;;1.30;;
27722;SDS011;15123;-37.794;175.246;2022-09-27T02:46:24;10.02;;;1.25;;
27722;SDS011;15123;-37.794;175.246;2022-09-27T02:50:07;6.78;;;1.33;;
27722;SDS011;15123;-37.794;175.246;2022-09-27T02:57:46;8.43;;;1.20;;
27722;SDS011;15123;-37.794;175.246;2022-09-27T03:02:10;12.07;;;1.40;;
27722;SDS011;15123;-37.794;175.246;2022-09-27T03:06:13;13.13;;;1.67;;
27722;SDS011;15123;-37.794;175.246;2022-09-27T03:09:42;13.05;;;1.95;;
27722;SDS011;15123;-37.794;175.246;2022-09-27T03:13:08;9.95;;;1.60;;
27722;SDS011;15123;-37.794;175.246;2022-09-27T03:16:33;10.25;;;1.10;;
27722;SDS011;15123;-37.794;175.246;2022-09-27T03:20:15;7.70;;;1.27;;
27722;SDS011;15123;-37.794;175.246;2022-09-27T03:23:59;9.25;;;1.40;;
27722;SDS011;15123;-37.794;175.246;2022-09-27T03:27:23;6.30;;;1.10;;
27722;SDS011;15123;-37.794;175.246;2022-09-27T03:30:47;10.27;;;1.20;;
27722;SDS011;15123;-37.794;175.246;2022-09-27T03:34:31;8.57;;;1.00;;
27722;SDS011;15123;-37.794;175.246;2022-09-27T03:37:56;9.20;;;1.20;;
27722;SDS011;15123;-37.794;175.246;2022-09-27T03:41:21;11.18;;;1.17;;
27722;SDS011;15123;-37.794;175.246;2022-09-27T03:44:45;10.68;;;1.23;;
27722;SDS011;15123;-37.794;175.246;2022-09-27T03:48:09;7.50;;;1.10;;
27722;SDS011;15123;-37.794;175.246;2022-09-27T03:51:36;12.00;;;1.52;;
27722;SDS011;15123;-37.794;175.246;2022-09-27T03:55:01;8.38;;;1.00;;
27722;SDS011;15123;-37.794;175.246;2022-09-27T03:58:25;7.22;;;1.02;;
27722;SDS011;15123;-37.794;175.246;2022-09-27T04:01:51;10.43;;;1.25;;
27722;SDS011;15123;-37.794;175.246;2022-09-27T04:05:33;11.67;;;1.40;;
27722;SDS011;15123;-37.794;175.246;2022-09-27T04:09:07;8.07;;;1.30;;
27722;SDS011;15123;-37.794;175.246;2022-09-27T04:12:34;9.05;;;1.42;;
27722;SDS011;15123;-37.794;175.246;2022-09-27T04:16:03;11.23;;;1.13;;
27722;SDS011;15123;-37.794;175.246;2022-09-27T04:19:45;9.97;;;1.27;;
27722;SDS011;15123;-37.794;175.246;2022-09-27T04:23:10;13.15;;;1.30;;
27722;SDS011;15123;-37.794;175.246;2022-09-27T04:26:38;8.65;;;1.20;;
27722;SDS011;15123;-37.794;175.246;2022-09-27T04:30:02;9.38;;;1.20;;
27722;SDS011;15123;-37.794;175.246;2022-09-27T04:33:46;9.98;;;1.55;;
27722;SDS011;15123;-37.794;175.246;2022-09-27T04:37:11;8.55;;;1.02;;
27722;SDS011;15123;-37.794;175.246;2022-09-27T04:40:36;6.63;;;1.02;;
27722;SDS011;15123;-37.794;175.246;2022-09-27T04:44:00;8.45;;;1.20;;
27722;SDS011;15123;-37.794;175.246;2022-09-27T04:47:24;9.80;;;1.42;;
27722;SDS011;15123;-37.794;175.246;2022-09-27T04:50:58;9.65;;;1.30;;
27722;SDS011;15123;-37.794;175.246;2022-09-27T04:54:23;10.45;;;1.30;;
27722;SDS011;15123;-37.794;175.246;2022-09-27T04:57:48;9.82;;;1.30;;
27722;SDS011;15123;-37.794;175.246;2022-09-27T05:01:12;10.77;;;1.75;;
27722;SDS011;15123;-37.794;175.246;2022-09-27T05:05:02;11.15;;;1.35;;
27722;SDS011;15123;-37.794;175.246;2022-09-27T05:08:25;10.65;;;1.38;;
27722;SDS011;15123;-37.794;175.246;2022-09-27T05:11:52;12.38;;;1.48;;
27722;SDS011;15123;-37.794;175.246;2022-09-27T05:15:18;12.02;;;1.40;;
27722;SDS011;15123;-37.794;175.246;2022-09-27T05:19:04;8.07;;;1.33;;
27722;SDS011;15123;-37.794;175.246;2022-09-27T05:22:39;11.90;;;1.58;;
27722;SDS011;15123;-37.794;175.246;2022-09-27T05:26:03;8.75;;;1.20;;
27722;SDS011;15123;-37.794;175.246;2022-09-27T05:29:29;10.65;;;1.45;;
27722;SDS011;15123;-37.794;175.246;2022-09-27T05:32:59;10.30;;;1.30;;
27722;SDS011;15123;-37.794;175.246;2022-09-27T05:36:22;9.77;;;1.40;;
27722;SDS011;15123;-37.794;175.246;2022-09-27T05:39:48;10.02;;;1.10;;
27722;SDS011;15123;-37.794;175.246;2022-09-27T05:43:32;10.50;;;1.20;;
27722;SDS011;15123;-37.794;175.246;2022-09-27T05:46:56;10.32;;;1.30;;
27722;SDS011;15123;-37.794;175.246;2022-09-27T05:50:22;5.05;;;0.85;;
27722;SDS011;15123;-37.794;175.246;2022-09-27T05:53:47;6.28;;;0.90;;
27722;SDS011;15123;-37.794;175.246;2022-09-27T05:57:12;11.88;;;1.20;;
27722;SDS011;15123;-37.794;175.246;2022-09-27T06:00:39;10.75;;;1.17;;
27722;SDS011;15123;-37.794;175.246;2022-09-27T06:04:21;11.93;;;1.60;;
27722;SDS011;15123;-37.794;175.246;2022-09-27T06:11:30;9.95;;;1.10;;
27722;SDS011;15123;-37.794;175.246;2022-09-27T06:14:54;13.13;;;1.83;;
27722;SDS011;15123;-37.794;175.246;2022-09-27T06:18:19;9.70;;;1.35;;
27722;SDS011;15123;-37.794;175.246;2022-09-27T06:21:43;12.32;;;1.40;;
27722;SDS011;15123;-37.794;175.246;2022-09-27T06:25:28;13.00;;;1.50;;
27722;SDS011;15123;-37.794;175.246;2022-09-27T06:29:24;13.95;;;1.80;;
27722;SDS011;15123;-37.794;175.246;2022-09-27T06:33:14;9.02;;;1.25;;
27722;SDS011;15123;-37.794;175.246;2022-09-27T06:36:40;10.80;;;1.90;;
27722;SDS011;15123;-37.794;175.246;2022-09-27T06:40:04;12.38;;;1.17;;
27722;SDS011;15123;-37.794;175.246;2022-09-27T06:43:47;14.60;;;1.88;;
27722;SDS011;15123;-37.794;175.246;2022-09-27T06:47:33;15.93;;;1.45;;
27722;SDS011;15123;-37.794;175.246;2022-09-27T06:51:17;11.77;;;1.30;;
27722;SDS011;15123;-37.794;175.246;2022-09-27T06:54:41;10.70;;;1.42;;
27722;SDS011;15123;-37.794;175.246;2022-09-27T06:58:06;7.85;;;1.20;;
27722;SDS011;15123;-37.794;175.246;2022-09-27T07:02:09;11.27;;;1.00;;
27722;SDS011;15123;-37.794;175.246;2022-09-27T07:05:58;7.83;;;1.27;;
27722;SDS011;15123;-37.794;175.246;2022-09-27T07:09:32;10.68;;;1.17;;
27722;SDS011;15123;-37.794;175.246;2022-09-27T07:13:03;10.85;;;1.00;;
27722;SDS011;15123;-37.794;175.246;2022-09-27T07:16:14;7.90;;;1.10;;
27722;SDS011;15123;-37.794;175.246;2022-09-27T07:19:39;10.20;;;1.20;;
27722;SDS011;15123;-37.794;175.246;2022-09-27T07:23:04;8.82;;;1.30;;
27722;SDS011;15123;-37.794;175.246;2022-09-27T07:26:29;8.82;;;1.30;;
27722;SDS011;15123;-37.794;175.246;2022-09-27T07:29:55;10.88;;;1.20;;
27722;SDS011;15123;-37.794;175.246;2022-09-27T07:33:20;11.18;;;2.00;;
27722;SDS011;15123;-37.794;175.246;2022-09-27T07:36:51;9.93;;;1.52;;
27722;SDS011;15123;-37.794;175.246;2022-09-27T07:40:12;10.55;;;1.40;;
27722;SDS011;15123;-37.794;175.246;2022-09-27T07:43:36;10.65;;;1.30;;
27722;SDS011;15123;-37.794;175.246;2022-09-27T07:47:05;11.20;;;1.42;;
27722;SDS011;15123;-37.794;175.246;2022-09-27T07:50:41;13.95;;;1.40;;
27722;SDS011;15123;-37.794;175.246;2022-09-27T07:54:28;7.45;;;1.13;;
27722;SDS011;15123;-37.794;175.246;2022-09-27T07:58:11;10.65;;;1.40;;
27722;SDS011;15123;-37.794;175.246;2022-09-27T08:01:39;9.02;;;1.60;;
27722;SDS011;15123;-37.794;175.246;2022-09-27T08:05:03;8.65;;;1.17;;
27722;SDS011;15123;-37.794;175.246;2022-09-27T08:08:28;9.13;;;1.45;;
27722;SDS011;15123;-37.794;175.246;2022-09-27T08:11:51;11.48;;;1.40;;
27722;SDS011;15123;-37.794;175.246;2022-09-27T08:15:16;11.10;;;1.20;;
27722;SDS011;15123;-37.794;175.246;2022-09-27T08:18:40;11.38;;;1.17;;
27722;SDS011;15123;-37.794;175.246;2022-09-27T08:22:18;11.60;;;1.33;;
27722;SDS011;15123;-37.794;175.246;2022-09-27T08:25:56;9.43;;;1.23;;
27722;SDS011;15123;-37.794;175.246;2022-09-27T08:29:30;9.73;;;1.05;;
27722;SDS011;15123;-37.794;175.246;2022-09-27T08:32:57;8.82;;;0.93;;
27722;SDS011;15123;-37.794;175.246;2022-09-27T08:36:22;8.10;;;1.00;;
27722;SDS011;15123;-37.794;175.246;2022-09-27T08:39:47;7.95;;;0.90;;
27722;SDS011;15123;-37.794;175.246;2022-09-27T08:46:46;9.75;;;1.20;;
27722;SDS011;15123;-37.794;175.246;2022-09-27T08:50:30;7.35;;;1.27;;
27722;SDS011;15123;-37.794;175.246;2022-09-27T08:57:30;8.48;;;1.00;;
27722;SDS011;15123;-37.794;175.246;2022-09-27T09:01:01;8.82;;;1.25;;
27722;SDS011;15123;-37.794;175.246;2022-09-27T09:04:45;6.68;;;0.73;;
27722;SDS011;15123;-37.794;175.246;2022-09-27T09:16:27;5.50;;;0.80;;
27722;SDS011;15123;-37.794;175.246;2022-09-27T09:27:47;10.23;;;1.38;;
27722;SDS011;15123;-37.794;175.246;2022-09-27T09:35:06;6.90;;;1.00;;
27722;SDS011;15123;-37.794;175.246;2022-09-27T09:42:14;8.38;;;1.10;;
27722;SDS011;15123;-37.794;175.246;2022-09-27T09:45:48;9.10;;;1.40;;
27722;SDS011;15123;-37.794;175.246;2022-09-27T09:52:53;9.73;;;1.73;;
27722;SDS011;15123;-37.794;175.246;2022-09-27T09:56:22;8.05;;;1.42;;
27722;SDS011;15123;-37.794;175.246;2022-09-27T09:59:56;8.73;;;1.20;;
27722;SDS011;15123;-37.794;175.246;2022-09-27T10:03:25;9.20;;;1.30;;
27722;SDS011;15123;-37.794;175.246;2022-09-27T10:06:49;10.48;;;1.20;;
27722;SDS011;15123;-37.794;175.246;2022-09-27T10:10:14;7.22;;;1.20;;
27722;SDS011;15123;-37.794;175.246;2022-09-27T10:13:40;9.18;;;1.38;;
27722;SDS011;15123;-37.794;175.246;2022-09-27T10:17:08;9.77;;;1.40;;
27722;SDS011;15123;-37.794;175.246;2022-09-27T10:24:55;7.95;;;1.25;;
27722;SDS011;15123;-37.794;175.246;2022-09-27T10:28:38;8.73;;;1.15;;
27722;SDS011;15123;-37.794;175.246;2022-09-27T10:32:20;10.23;;;1.27;;
27722;SDS011;15123;-37.794;175.246;2022-09-27T10:36:21;10.43;;;1.30;;
27722;SDS011;15123;-37.794;175.246;2022-09-27T10:39:47;7.72;;;0.90;;
27722;SDS011;15123;-37.794;175.246;2022-09-27T10:43:25;10.27;;;1.00;;
27722;SDS011;15123;-37.794;175.246;2022-09-27T10:47:05;5.18;;;1.00;;
27722;SDS011;15123;-37.794;175.246;2022-09-27T10:50:40;6.82;;;0.90;;
27722;SDS011;15123;-37.794;175.246;2022-09-27T10:57:48;9.25;;;1.27;;
27722;SDS011;15123;-37.794;175.246;2022-09-27T11:01:14;6.65;;;0.85;;
27722;SDS011;15123;-37.794;175.246;2022-09-27T11:08:34;6.53;;;0.85;;
27722;SDS011;15123;-37.794;175.246;2022-09-27T11:12:05;8.43;;;1.05;;
27722;SDS011;15123;-37.794;175.246;2022-09-27T11:15:43;4.70;;;0.80;;
27722;SDS011;15123;-37.794;175.246;2022-09-27T11:23:17;5.22;;;0.80;;
27722;SDS011;15123;-37.794;175.246;2022-09-27T11:30:46;5.95;;;0.80;;
27722;SDS011;15123;-37.794;175.246;2022-09-27T11:34:28;4.40;;;0.68;;
27722;SDS011;15123;-37.794;175.246;2022-09-27T11:38:14;4.53;;;0.60;;
27722;SDS011;15123;-37.794;175.246;2022-09-27T11:46:22;5.55;;;0.70;;
27722;SDS011;15123;-37.794;175.246;2022-09-27T11:57:20;5.63;;;0.82;;
27722;SDS011;15123;-37.794;175.246;2022-09-27T12:09:07;5.65;;;0.80;;
27722;SDS011;15123;-37.794;175.246;2022-09-27T12:12:34;6.00;;;0.70;;
27722;SDS011;15123;-37.794;175.246;2022-09-27T12:16:01;4.88;;;0.70;;
27722;SDS011;15123;-37.794;175.246;2022-09-27T12:19:27;5.05;;;0.77;;
27722;SDS011;15123;-37.794;175.246;2022-09-27T12:27:24;7.88;;;0.85;;
27722;SDS011;15123;-37.794;175.246;2022-09-27T12:31:02;6.13;;;0.75;;
27722;SDS011;15123;-37.794;175.246;2022-09-27T12:38:16;6.25;;;0.73;;
27722;SDS011;15123;-37.794;175.246;2022-09-27T12:42:09;6.38;;;0.70;;
27722;SDS011;15123;-37.794;175.246;2022-09-27T13:00:26;7.80;;;0.70;;
27722;SDS011;15123;-37.794;175.246;2022-09-27T13:36:38;8.15;;;1.33;;
27722;SDS011;15123;-37.794;175.246;2022-09-27T13:40:25;4.68;;;0.70;;
27722;SDS011;15123;-37.794;175.246;2022-09-27T13:48:14;6.25;;;0.70;;
27722;SDS011;15123;-37.794;175.246;2022-09-27T13:51:46;8.35;;;0.88;;
27722;SDS011;15123;-37.794;175.246;2022-09-27T13:59:22;8.65;;;1.10;;
27722;SDS011;15123;-37.794;175.246;2022-09-27T14:03:21;6.45;;;0.90;;
27722;SDS011;15123;-37.794;175.246;2022-09-27T14:06:58;9.70;;;0.85;;
27722;SDS011;15123;-37.794;175.246;2022-09-27T14:10:23;6.32;;;0.70;;
27722;SDS011;15123;-37.794;175.246;2022-09-27T14:13:47;7.93;;;0.85;;
27722;SDS011;15123;-37.794;175.246;2022-09-27T14:17:15;7.43;;;0.80;;
27722;SDS011;15123;-37.794;175.246;2022-09-27T14:20:40;7.00;;;0.80;;
27722;SDS011;15123;-37.794;175.246;2022-09-27T14:28:17;7.18;;;1.00;;
27722;SDS011;15123;-37.794;175.246;2022-09-27T14:32:03;8.10;;;1.02;;
27722;SDS011;15123;-37.794;175.246;2022-09-27T14:35:34;5.65;;;0.70;;
27722;SDS011;15123;-37.794;175.246;2022-09-27T14:39:29;6.50;;;1.08;;
27722;SDS011;15123;-37.794;175.246;2022-09-27T14:43:03;8.00;;;0.80;;
27722;SDS011;15123;-37.794;175.246;2022-09-27T14:46:28;7.05;;;0.88;;
27722;SDS011;15123;-37.794;175.246;2022-09-27T14:53:22;7.25;;;0.80;;
27722;SDS011;15123;-37.794;175.246;2022-09-27T14:56:48;6.90;;;1.00;;
27722;SDS011;15123;-37.794;175.246;2022-09-27T15:00:21;5.85;;;0.77;;
27722;SDS011;15123;-37.794;175.246;2022-09-27T15:03:47;6.20;;;1.05;;
27722;SDS011;15123;-37.794;175.246;2022-09-27T15:07:12;5.95;;;0.85;;
27722;SDS011;15123;-37.794;175.246;2022-09-27T15:10:37;6.20;;;0.77;;
27722;SDS011;15123;-37.794;175.246;2022-09-27T15:14:01;7.78;;;0.93;;
27722;SDS011;15123;-37.794;175.246;2022-09-27T15:17:38;6.60;;;0.80;;
27722;SDS011;15123;-37.794;175.246;2022-09-27T15:21:06;4.88;;;0.60;;
27722;SDS011;15123;-37.794;175.246;2022-09-27T15:24:44;3.95;;;0.50;;
27722;SDS011;15123;-37.794;175.246;2022-09-27T15:28:16;3.45;;;0.50;;
27722;SDS011;15123;-37.794;175.246;2022-09-27T15:31:42;4.60;;;0.60;;
27722;SDS011;15123;-37.794;175.246;2022-09-27T15:35:05;4.03;;;0.50;;
27722;SDS011;15123;-37.794;175.246;2022-09-27T15:42:11;3.60;;;0.60;;
27722;SDS011;15123;-37.794;175.246;2022-09-27T15:45:41;7.22;;;0.70;;
27722;SDS011;15123;-37.794;175.246;2022-09-27T15:52:43;3.00;;;0.52;;
27722;SDS011;15123;-37.794;175.246;2022-09-27T15:56:11;5.35;;;0.80;;
27722;SDS011;15123;-37.794;175.246;2022-09-27T15:59:36;6.65;;;0.65;;
27722;SDS011;15123;-37.794;175.246;2022-09-27T16:03:00;5.43;;;0.60;;
27722;SDS011;15123;-37.794;175.246;2022-09-27T16:06:23;5.07;;;0.50;;
27722;SDS011;15123;-37.794;175.246;2022-09-27T16:09:49;4.07;;;0.65;;
27722;SDS011;15123;-37.794;175.246;2022-09-27T16:13:14;3.05;;;0.40;;
27722;SDS011;15123;-37.794;175.246;2022-09-27T16:16:42;2.90;;;0.52;;
27722;SDS011;15123;-37.794;175.246;2022-09-27T16:20:20;3.28;;;0.50;;
27722;SDS011;15123;-37.794;175.246;2022-09-27T16:23:48;7.15;;;1.05;;
27722;SDS011;15123;-37.794;175.246;2022-09-27T16:27:20;3.28;;;0.60;;
27722;SDS011;15123;-37.794;175.246;2022-09-27T16:30:48;5.07;;;0.60;;
27722;SDS011;15123;-37.794;175.246;2022-09-27T16:34:11;3.90;;;0.70;;
27722;SDS011;15123;-37.794;175.246;2022-09-27T16:37:35;5.07;;;0.70;;
27722;SDS011;15123;-37.794;175.246;2022-09-27T16:41:02;5.80;;;0.70;;
27722;SDS011;15123;-37.794;175.246;2022-09-27T16:44:27;4.50;;;0.75;;
27722;SDS011;15123;-37.794;175.246;2022-09-27T16:47:52;5.57;;;0.90;;
27722;SDS011;15123;-37.794;175.246;2022-09-27T16:51:17;4.38;;;0.70;;
27722;SDS011;15123;-37.794;175.246;2022-09-27T16:55:00;5.55;;;0.70;;
27722;SDS011;15123;-37.794;175.246;2022-09-27T16:58:24;4.70;;;0.70;;
27722;SDS011;15123;-37.794;175.246;2022-09-27T17:01:48;4.97;;;0.75;;
27722;SDS011;15123;-37.794;175.246;2022-09-27T17:05:12;3.47;;;0.70;;
27722;SDS011;15123;-37.794;175.246;2022-09-27T17:08:38;4.45;;;0.63;;
27722;SDS011;15123;-37.794;175.246;2022-09-27T17:12:02;4.55;;;0.70;;
27722;SDS011;15123;-37.794;175.246;2022-09-27T17:15:26;4.50;;;0.70;;
27722;SDS011;15123;-37.794;175.246;2022-09-27T17:18:49;4.65;;;0.65;;
27722;SDS011;15123;-37.794;175.246;2022-09-27T17:22:13;5.90;;;0.90;;
27722;SDS011;15123;-37.794;175.246;2022-09-27T17:25:37;4.13;;;0.82;;
27722;SDS011;15123;-37.794;175.246;2022-09-27T17:28:55;7.00;;;0.95;;
27722;SDS011;15123;-37.794;175.246;2022-09-27T17:32:13;3.63;;;1.10;;
27722;SDS011;15123;-37.794;175.246;2022-09-27T17:35:38;5.93;;;1.30;;
27722;SDS011;15123;-37.794;175.246;2022-09-27T17:39:02;6.70;;;1.38;;
27722;SDS011;15123;-37.794;175.246;2022-09-27T17:42:26;7.88;;;1.60;;
27722;SDS011;15123;-37.794;175.246;2022-09-27T17:45:53;4.22;;;1.00;;
27722;SDS011;15123;-37.794;175.246;2022-09-27T17:49:18;4.53;;;1.10;;
27722;SDS011;15123;-37.794;175.246;2022-09-27T17:53:00;5.72;;;1.35;;
27722;SDS011;15123;-37.794;175.246;2022-09-27T17:56:24;8.13;;;1.65;;
27722;SDS011;15123;-37.794;175.246;2022-09-27T17:59:49;4.70;;;0.98;;
27722;SDS011;15123;-37.794;175.246;2022-09-27T18:03:13;6.93;;;1.10;;
27722;SDS011;15123;-37.794;175.246;2022-09-27T18:06:38;4.90;;;1.08;;
27722;SDS011;15123;-37.794;175.246;2022-09-27T18:10:02;4.03;;;0.93;;
27722;SDS011;15123;-37.794;175.246;2022-09-27T18:13:28;6.38;;;1.45;;
27722;SDS011;15123;-37.794;175.246;2022-09-27T18:16:55;6.82;;;1.10;;
27722;SDS011;15123;-37.794;175.246;2022-09-27T18:20:19;7.50;;;1.20;;
27722;SDS011;15123;-37.794;175.246;2022-09-27T18:23:43;7.43;;;1.30;;
27722;SDS011;15123;-37.794;175.246;2022-09-27T18:27:07;8.02;;;2.28;;
27722;SDS011;15123;-37.794;175.246;2022-09-27T18:30:27;10.25;;;4.63;;
27722;SDS011;15123;-37.794;175.246;2022-09-27T18:33:44;12.55;;;7.35;;
27722;SDS011;15123;-37.794;175.246;2022-09-27T18:37:08;8.88;;;5.40;;
27722;SDS011;15123;-37.794;175.246;2022-09-27T18:40:25;8.93;;;3.53;;
27722;SDS011;15123;-37.794;175.246;2022-09-27T18:44:03;7.05;;;1.80;;
27722;SDS011;15123;-37.794;175.246;2022-09-27T18:47:27;4.95;;;1.40;;
27722;SDS011;15123;-37.794;175.246;2022-09-27T18:50:51;6.82;;;1.50;;
27722;SDS011;15123;-37.794;175.246;2022-09-27T18:54:16;6.95;;;1.38;;
27722;SDS011;15123;-37.794;175.246;2022-09-27T18:57:44;6.15;;;1.20;;
27722;SDS011;15123;-37.794;175.246;2022-09-27T19:01:12;6.97;;;1.35;;
27722;SDS011;15123;-37.794;175.246;2022-09-27T19:04:38;6.15;;;1.27;;
27722;SDS011;15123;-37.794;175.246;2022-09-27T19:08:02;5.45;;;1.10;;
27722;SDS011;15123;-37.794;175.246;2022-09-27T19:11:26;4.22;;;1.00;;
27722;SDS011;15123;-37.794;175.246;2022-09-27T19:14:50;7.05;;;1.02;;
27722;SDS011;15123;-37.794;175.246;2022-09-27T19:18:14;6.78;;;1.10;;
27722;SDS011;15123;-37.794;175.246;2022-09-27T19:21:38;6.85;;;1.13;;
27722;SDS011;15123;-37.794;175.246;2022-09-27T19:25:01;7.05;;;1.75;;
27722;SDS011;15123;-37.794;175.246;2022-09-27T19:28:24;7.53;;;1.23;;
27722;SDS011;15123;-37.794;175.246;2022-09-27T19:31:49;7.05;;;1.40;;
27722;SDS011;15123;-37.794;175.246;2022-09-27T19:35:13;7.20;;;1.45;;
27722;SDS011;15123;-37.794;175.246;2022-09-27T19:38:37;6.60;;;1.27;;
27722;SDS011;15123;-37.794;175.246;2022-09-27T19:42:00;5.35;;;1.30;;
27722;SDS011;15123;-37.794;175.246;2022-09-27T19:45:24;6.63;;;1.00;;
27722;SDS011;15123;-37.794;175.246;2022-09-27T19:48:49;7.28;;;0.82;;
27722;SDS011;15123;-37.794;175.246;2022-09-27T19:52:13;3.97;;;0.70;;
27722;SDS011;15123;-37.794;175.246;2022-09-27T19:55:36;4.75;;;0.60;;
27722;SDS011;15123;-37.794;175.246;2022-09-27T19:59:00;5.32;;;0.50;;
27722;SDS011;15123;-37.794;175.246;2022-09-27T20:02:25;8.38;;;0.82;;
27722;SDS011;15123;-37.794;175.246;2022-09-27T20:05:55;6.22;;;0.60;;
27722;SDS011;15123;-37.794;175.246;2022-09-27T20:09:14;7.00;;;0.65;;
27722;SDS011;15123;-37.794;175.246;2022-09-27T20:12:39;3.22;;;0.73;;
27722;SDS011;15123;-37.794;175.246;2022-09-27T20:16:08;4.95;;;0.90;;
27722;SDS011;15123;-37.794;175.246;2022-09-27T20:19:31;3.92;;;0.60;;
27722;SDS011;15123;-37.794;175.246;2022-09-27T20:22:55;4.70;;;0.60;;
27722;SDS011;15123;-37.794;175.246;2022-09-27T20:26:19;4.78;;;0.55;;
27722;SDS011;15123;-37.794;175.246;2022-09-27T20:29:44;5.75;;;0.50;;
27722;SDS011;15123;-37.794;175.246;2022-09-27T20:33:02;4.95;;;0.50;;
27722;SDS011;15123;-37.794;175.246;2022-09-27T20:36:39;2.80;;;0.50;;
27722;SDS011;15123;-37.794;175.246;2022-09-27T20:40:05;5.07;;;0.63;;
27722;SDS011;15123;-37.794;175.246;2022-09-27T20:43:29;4.75;;;0.55;;
27722;SDS011;15123;-37.794;175.246;2022-09-27T20:46:54;3.65;;;0.50;;
27722;SDS011;15123;-37.794;175.246;2022-09-27T20:50:19;5.47;;;0.70;;
27722;SDS011;15123;-37.794;175.246;2022-09-27T20:53:44;4.30;;;0.60;;
27722;SDS011;15123;-37.794;175.246;2022-09-27T20:57:08;3.92;;;0.60;;
27722;SDS011;15123;-37.794;175.246;2022-09-27T21:00:54;2.72;;;0.50;;
27722;SDS011;15123;-37.794;175.246;2022-09-27T21:04:18;5.63;;;0.80;;
27722;SDS011;15123;-37.794;175.246;2022-09-27T21:07:45;3.63;;;0.50;;
27722;SDS011;15123;-37.794;175.246;2022-09-27T21:11:11;5.30;;;0.47;;
27722;SDS011;15123;-37.794;175.246;2022-09-27T21:14:35;3.10;;;0.40;;
27722;SDS011;15123;-37.794;175.246;2022-09-27T21:17:59;3.97;;;0.57;;
27722;SDS011;15123;-37.794;175.246;2022-09-27T21:21:23;2.75;;;0.47;;
27722;SDS011;15123;-37.794;175.246;2022-09-27T21:24:47;2.63;;;0.40;;
27722;SDS011;15123;-37.794;175.246;2022-09-27T21:28:11;3.45;;;0.50;;
27722;SDS011;15123;-37.794;175.246;2022-09-27T21:31:35;3.13;;;0.50;;
27722;SDS011;15123;-37.794;175.246;2022-09-27T21:35:00;3.20;;;0.43;;
27722;SDS011;15123;-37.794;175.246;2022-09-27T21:38:23;2.55;;;0.50;;
27722;SDS011;15123;-37.794;175.246;2022-09-27T21:41:47;3.97;;;0.50;;
27722;SDS011;15123;-37.794;175.246;2022-09-27T21:45:11;5.00;;;0.50;;
27722;SDS011;15123;-37.794;175.246;2022-09-27T21:48:36;2.97;;;0.50;;
27722;SDS011;15123;-37.794;175.246;2022-09-27T21:52:01;4.28;;;0.50;;
27722;SDS011;15123;-37.794;175.246;2022-09-27T21:55:25;2.20;;;0.55;;
27722;SDS011;15123;-37.794;175.246;2022-09-27T21:58:50;4.35;;;0.73;;
27722;SDS011;15123;-37.794;175.246;2022-09-27T22:02:16;4.47;;;0.45;;
27722;SDS011;15123;-37.794;175.246;2022-09-27T22:05:45;4.25;;;0.50;;
27722;SDS011;15123;-37.794;175.246;2022-09-27T22:09:18;3.13;;;0.50;;
27722;SDS011;15123;-37.794;175.246;2022-09-27T22:12:42;2.88;;;0.50;;
27722;SDS011;15123;-37.794;175.246;2022-09-27T22:16:08;3.05;;;0.40;;
27722;SDS011;15123;-37.794;175.246;2022-09-27T22:19:33;4.50;;;0.60;;
27722;SDS011;15123;-37.794;175.246;2022-09-27T22:22:58;5.15;;;0.77;;
27722;SDS011;15123;-37.794;175.246;2022-09-27T22:26:23;3.92;;;0.60;;
27722;SDS011;15123;-37.794;175.246;2022-09-27T22:29:50;2.22;;;0.40;;
27722;SDS011;15123;-37.794;175.246;2022-09-27T22:33:08;0.93;;;0.40;;
27722;SDS011;15123;-37.794;175.246;2022-09-27T22:36:26;0.88;;;0.30;;
27722;SDS011;15123;-37.794;175.246;2022-09-27T22:39:50;3.72;;;0.40;;
27722;SDS011;15123;-37.794;175.246;2022-09-27T22:43:14;2.22;;;0.40;;
27722;SDS011;15123;-37.794;175.246;2022-09-27T22:46:38;4.32;;;0.50;;
27722;SDS011;15123;-37.794;175.246;2022-09-27T22:50:01;4.60;;;0.52;;
27722;SDS011;15123;-37.794;175.246;2022-09-27T22:53:26;2.22;;;0.57;;
27722;SDS011;15123;-37.794;175.246;2022-09-27T22:56:50;2.13;;;0.40;;
27722;SDS011;15123;-37.794;175.246;2022-09-27T23:00:14;3.00;;;0.40;;
27722;SDS011;15123;-37.794;175.246;2022-09-27T23:03:38;2.38;;;0.47;;
27722;SDS011;15123;-37.794;175.246;2022-09-27T23:07:02;2.33;;;0.50;;
27722;SDS011;15123;-37.794;175.246;2022-09-27T23:10:26;2.28;;;0.50;;
27722;SDS011;15123;-37.794;175.246;2022-09-27T23:13:50;2.17;;;0.40;;